createdAt,value
2019-02-24T00:01:21.044Z,103566.44
2019-02-24T00:03:49.511Z,103557.19
2019-02-24T00:06:17.990Z,103554.97
2019-02-24T00:08:46.463Z,103559.22
2019-02-24T00:11:14.941Z,103560.12
2019-02-24T00:13:43.429Z,103549.02
2019-02-24T00:16:11.904Z,103554.73
2019-02-24T00:18:40.408Z,103550.29
2019-02-24T00:21:08.888Z,103540.67
2019-02-24T00:23:37.356Z,103539.69
2019-02-24T00:26:05.855Z,103536.95
2019-02-24T00:28:34.330Z,103538.69
2019-02-24T00:31:02.811Z,103543.31
2019-02-24T00:33:31.350Z,103545.48
2019-02-24T00:35:59.843Z,103538.03
2019-02-24T00:38:28.735Z,103535.53
2019-02-24T00:40:57.228Z,103536.95
2019-02-24T00:43:25.695Z,103537.99
2019-02-24T00:45:54.195Z,103532.99
2019-02-24T00:48:22.659Z,103534.27
2019-02-24T00:50:51.154Z,103530.63
2019-02-24T00:53:19.622Z,103521.72
2019-02-24T00:55:48.190Z,103515.34
2019-02-24T00:58:16.676Z,103500.48
2019-02-24T01:00:45.196Z,103502.75
2019-02-24T01:03:13.646Z,103508.17
2019-02-24T01:05:42.153Z,103501.20
2019-02-24T01:08:10.785Z,103505.16
2019-02-24T01:10:39.264Z,103511.77
2019-02-24T01:13:07.724Z,103514.02
2019-02-24T01:15:36.213Z,103515.48
2019-02-24T01:18:04.697Z,103522.84
2019-02-24T01:20:33.172Z,103518.41
2019-02-24T01:23:01.648Z,103514.17
2019-02-24T01:25:30.132Z,103518.47
2019-02-24T01:27:58.596Z,103516.25
2019-02-24T01:30:27.088Z,103509.59
2019-02-24T01:32:55.547Z,103514.31
2019-02-24T01:35:24.042Z,103511.63
2019-02-24T01:37:52.573Z,103503.66
2019-02-24T01:40:21.068Z,103516.52
2019-02-24T01:42:49.528Z,103524.55
2019-02-24T01:45:18.016Z,103520.67
2019-02-24T01:47:46.491Z,103528.03
2019-02-24T01:50:14.982Z,103529.92
2019-02-24T01:52:43.455Z,103525.06
2019-02-24T01:55:11.943Z,103532.61
2019-02-24T01:57:40.426Z,103518.51
2019-02-24T02:00:10.640Z,103506.77
2019-02-24T02:02:39.121Z,103513.98
2019-02-24T02:05:08.451Z,103519.27
2019-02-24T02:07:36.926Z,103518.79
2019-02-24T02:10:06.955Z,103503.70
2019-02-24T02:12:35.424Z,103493.38
2019-02-24T02:15:04.111Z,103491.16
2019-02-24T02:17:32.576Z,103488.89
2019-02-24T02:20:01.064Z,103479.55
2019-02-24T02:22:29.555Z,103471.73
2019-02-24T02:24:58.051Z,103468.56
2019-02-24T02:27:26.521Z,103467.58
2019-02-24T02:29:55.011Z,103467.20
2019-02-24T02:32:23.467Z,103465.78
2019-02-24T02:34:51.955Z,103458.98
2019-02-24T02:37:20.435Z,103462.77
2019-02-24T02:39:48.936Z,103469.28
2019-02-24T02:42:17.388Z,103461.64
2019-02-24T02:44:45.875Z,103453.34
2019-02-24T02:47:14.350Z,103462.35
2019-02-24T02:49:42.841Z,103468.95
2019-02-24T02:52:11.314Z,103460.55
2019-02-24T02:54:39.781Z,103457.95
2019-02-24T02:57:08.279Z,103452.87
2019-02-24T02:59:36.763Z,103458.91
2019-02-24T03:02:05.343Z,103452.06
2019-02-24T03:04:33.796Z,103463.80
2019-02-24T03:07:21.974Z,103464.97
2019-02-24T03:09:50.475Z,103473.23
2019-02-24T03:12:18.933Z,103462.05
2019-02-24T03:14:47.415Z,103460.26
2019-02-24T03:17:15.895Z,103465.92
2019-02-24T03:19:44.360Z,103462.11
2019-02-24T03:22:12.857Z,103456.21
2019-02-24T03:24:41.348Z,103463.14
2019-02-24T03:27:09.852Z,103454.56
2019-02-24T03:29:38.326Z,103455.40
2019-02-24T03:32:06.827Z,103463.98
2019-02-24T03:34:35.308Z,103460.31
2019-02-24T03:37:03.812Z,103466.44
2019-02-24T03:39:32.269Z,103462.80
2019-02-24T03:42:00.946Z,103444.33
2019-02-24T03:44:29.410Z,103443.72
2019-02-24T03:46:57.904Z,103448.09
2019-02-24T03:49:26.401Z,103444.09
2019-02-24T03:51:54.884Z,103449.92
2019-02-24T03:54:23.364Z,103456.61
2019-02-24T03:56:51.846Z,103458.20
2019-02-24T03:59:20.329Z,103451.38
2019-02-24T04:01:48.894Z,103450.91
2019-02-24T04:04:17.363Z,103453.35
2019-02-24T04:06:45.868Z,103449.92
2019-02-24T04:09:14.342Z,103449.58
2019-02-24T04:11:42.837Z,103434.95
2019-02-24T04:14:11.384Z,103419.19
2019-02-24T04:16:39.888Z,103406.78
2019-02-24T04:19:08.401Z,103404.34
2019-02-24T04:21:36.866Z,103398.64
2019-02-24T04:24:05.349Z,103394.55
2019-02-24T04:26:33.828Z,103395.78
2019-02-24T04:29:02.297Z,103387.87
2019-02-24T04:31:30.792Z,103390.26
2019-02-24T04:33:59.286Z,103386.07
2019-02-24T04:36:27.787Z,103383.44
2019-02-24T04:38:56.264Z,103388.48
2019-02-24T04:41:24.762Z,103385.38
2019-02-24T04:43:53.230Z,103384.98
2019-02-24T04:46:21.737Z,103385.45
2019-02-24T04:48:50.201Z,103383.19
2019-02-24T04:51:18.685Z,103388.09
2019-02-24T04:53:47.164Z,103390.03
2019-02-24T04:56:15.661Z,103382.25
2019-02-24T04:58:44.221Z,103380.66
2019-02-24T05:01:12.707Z,103381.55
2019-02-24T05:03:41.228Z,103388.70
2019-02-24T05:06:09.944Z,103387.25
2019-02-24T05:08:38.413Z,103385.87
2019-02-24T05:11:06.909Z,103400.16
2019-02-24T05:13:35.383Z,103402.09
2019-02-24T05:16:03.903Z,103403.64
2019-02-24T05:18:32.369Z,103406.28
2019-02-24T05:21:00.881Z,103407.45
2019-02-24T05:23:29.653Z,103410.04
2019-02-24T05:25:58.142Z,103410.04
2019-02-24T05:28:26.612Z,103406.56
2019-02-24T05:30:55.110Z,103408.86
2019-02-24T05:33:23.584Z,103413.72
2019-02-24T05:35:52.072Z,103415.09
2019-02-24T05:38:20.585Z,103415.79
2019-02-24T05:40:49.043Z,103417.25
2019-02-24T05:43:17.549Z,103418.09
2019-02-24T05:45:46.014Z,103421.97
2019-02-24T05:48:14.509Z,103421.06
2019-02-24T05:50:42.990Z,103420.37
2019-02-24T05:53:11.485Z,103427.66
2019-02-24T05:55:39.956Z,103421.83
2019-02-24T05:58:08.462Z,103418.20
2019-02-24T06:00:37.190Z,103415.23
2019-02-24T06:03:05.687Z,103413.58
2019-02-24T06:05:34.165Z,103406.28
2019-02-24T06:08:02.668Z,103404.31
2019-02-24T06:10:31.150Z,103409.81
2019-02-24T06:12:59.637Z,103415.14
2019-02-24T06:15:28.142Z,103411.75
2019-02-24T06:17:56.642Z,103409.11
2019-02-24T06:20:25.112Z,103407.66
2019-02-24T06:22:53.674Z,103406.81
2019-02-24T06:25:22.156Z,103406.70
2019-02-24T06:27:50.654Z,103407.45
2019-02-24T06:30:19.286Z,103408.97
2019-02-24T06:32:47.979Z,103395.60
2019-02-24T06:35:16.448Z,103401.11
2019-02-24T06:37:44.946Z,103394.33
2019-02-24T06:40:13.479Z,103396.82
2019-02-24T06:42:42.039Z,103399.52
2019-02-24T06:45:10.888Z,103398.48
2019-02-24T06:47:39.578Z,103405.30
2019-02-24T06:50:09.284Z,103395.45
2019-02-24T06:52:37.784Z,103397.75
2019-02-24T06:55:08.086Z,103397.38
2019-02-24T06:57:36.583Z,103406.00
2019-02-24T07:00:13.812Z,103409.67
2019-02-24T07:02:37.565Z,103416.93
2019-02-24T07:05:07.964Z,103414.47
2019-02-24T07:07:36.524Z,103423.82
2019-02-24T07:10:06.387Z,103420.73
2019-02-24T07:12:34.880Z,103431.62
2019-02-24T07:15:04.224Z,103432.14
2019-02-24T07:17:32.724Z,103435.77
2019-02-24T07:20:01.196Z,103439.13
2019-02-24T07:22:29.749Z,103433.46
2019-02-24T07:24:58.235Z,103430.00
2019-02-24T07:27:26.731Z,103425.40
2019-02-24T07:29:55.192Z,103421.61
2019-02-24T07:32:23.702Z,103422.38
2019-02-24T07:34:52.157Z,103419.10
2019-02-24T07:37:20.666Z,103416.13
2019-02-24T07:39:49.144Z,103406.70
2019-02-24T07:42:17.642Z,103411.41
2019-02-24T07:44:46.484Z,103407.78
2019-02-24T07:47:15.216Z,103408.03
2019-02-24T07:49:43.682Z,103402.23
2019-02-24T07:52:12.315Z,103400.69
2019-02-24T07:54:40.850Z,103402.30
2019-02-24T07:57:09.342Z,103392.95
2019-02-24T07:59:37.885Z,103401.83
2019-02-24T08:02:07.903Z,103404.67
2019-02-24T08:04:36.522Z,103404.55
2019-02-24T08:07:05.102Z,103404.72
2019-02-24T08:09:33.602Z,103409.87
2019-02-24T08:12:02.084Z,103405.99
2019-02-24T08:14:30.582Z,103411.72
2019-02-24T08:16:59.049Z,103414.95
2019-02-24T08:19:27.544Z,103412.89
2019-02-24T08:21:56.217Z,103406.31
2019-02-24T08:24:24.783Z,103410.23
2019-02-24T08:26:53.334Z,103416.58
2019-02-24T08:29:21.839Z,103410.77
2019-02-24T08:31:50.380Z,103408.22
2019-02-24T08:34:19.030Z,103408.11
2019-02-24T08:36:47.508Z,103409.27
2019-02-24T08:39:16.002Z,103395.45
2019-02-24T08:41:44.476Z,103401.36
2019-02-24T08:44:13.198Z,103397.20
2019-02-24T08:46:41.677Z,103401.95
2019-02-24T08:49:10.160Z,103404.69
2019-02-24T08:51:38.639Z,103409.40
2019-02-24T08:54:07.124Z,103406.11
2019-02-24T08:56:35.602Z,103413.37
2019-02-24T08:59:04.086Z,103412.86
2019-02-24T09:01:32.595Z,103411.08
2019-02-24T09:04:01.103Z,103413.73
2019-02-24T09:06:29.588Z,103404.12
2019-02-24T09:08:58.078Z,103403.80
2019-02-24T09:11:26.551Z,103406.11
2019-02-24T09:13:55.041Z,103384.45
2019-02-24T09:16:23.533Z,103385.84
2019-02-24T09:18:52.062Z,103406.46
2019-02-24T09:21:20.548Z,103399.63
2019-02-24T09:23:49.060Z,103403.62
2019-02-24T09:26:17.531Z,103407.25
2019-02-24T09:28:46.020Z,103411.38
2019-02-24T09:31:14.489Z,103416.00
2019-02-24T09:33:43.003Z,103429.09
2019-02-24T09:36:11.478Z,103431.88
2019-02-24T09:38:39.968Z,103428.36
2019-02-24T09:41:08.444Z,103431.26
2019-02-24T09:43:36.933Z,103432.87
2019-02-24T09:46:05.408Z,103437.88
2019-02-24T09:48:33.921Z,103430.90
2019-02-24T09:51:02.387Z,103437.21
2019-02-24T09:53:30.864Z,103430.98
2019-02-24T09:55:59.387Z,103420.13
2019-02-24T09:58:27.863Z,103426.32
2019-02-24T10:00:56.359Z,103429.90
2019-02-24T10:03:24.836Z,103431.61
2019-02-24T10:05:53.345Z,103419.91
2019-02-24T10:08:21.833Z,103408.17
2019-02-24T10:10:50.325Z,103414.39
2019-02-24T10:13:18.810Z,103409.25
2019-02-24T10:15:47.312Z,103402.23
2019-02-24T10:18:15.783Z,103402.92
2019-02-24T10:20:44.284Z,103400.07
2019-02-24T10:23:12.768Z,103397.77
2019-02-24T10:25:41.332Z,103395.13
2019-02-24T10:28:09.803Z,103392.37
2019-02-24T10:30:38.328Z,103386.61
2019-02-24T10:33:06.871Z,103397.79
2019-02-24T10:35:35.359Z,103410.24
2019-02-24T10:38:03.839Z,103415.70
2019-02-24T10:40:32.340Z,103419.27
2019-02-24T10:43:00.798Z,103410.29
2019-02-24T10:45:29.288Z,103413.28
2019-02-24T10:47:57.768Z,103409.57
2019-02-24T10:50:26.273Z,103406.95
2019-02-24T10:52:54.728Z,103409.98
2019-02-24T10:55:23.204Z,103412.84
2019-02-24T10:57:51.693Z,103407.86
2019-02-24T11:00:21.391Z,103402.02
2019-02-24T11:02:49.899Z,103398.06
2019-02-24T11:05:18.351Z,103398.95
2019-02-24T11:07:46.847Z,103402.11
2019-02-24T11:10:15.389Z,103403.92
2019-02-24T11:12:43.888Z,103403.08
2019-02-24T11:15:13.507Z,103391.92
2019-02-24T11:17:42.001Z,103401.30
2019-02-24T11:20:15.588Z,103397.75
2019-02-24T11:22:44.083Z,103397.34
2019-02-24T11:25:13.202Z,103399.59
2019-02-24T11:27:41.708Z,103390.58
2019-02-24T11:30:12.764Z,103392.80
2019-02-24T11:32:41.332Z,103392.39
2019-02-24T11:35:11.659Z,103399.58
2019-02-24T11:37:40.156Z,103397.78
2019-02-24T11:40:17.302Z,103400.48
2019-02-24T11:42:45.803Z,103391.09
2019-02-24T11:45:14.327Z,103391.07
2019-02-24T11:47:42.824Z,103394.20
2019-02-24T11:50:12.638Z,103396.41
2019-02-24T11:52:41.127Z,103399.98
2019-02-24T11:55:10.626Z,103395.53
2019-02-24T11:57:39.293Z,103403.11
2019-02-24T12:00:12.735Z,103400.39
2019-02-24T12:02:41.982Z,103402.20
2019-02-24T12:05:10.867Z,103402.21
2019-02-24T12:07:39.370Z,103383.94
2019-02-24T12:10:12.839Z,103389.73
2019-02-24T12:12:41.401Z,103383.48
2019-02-24T12:15:11.983Z,103377.66
2019-02-24T12:17:40.478Z,103370.95
2019-02-24T12:20:14.020Z,103381.69
2019-02-24T12:22:42.521Z,103385.25
2019-02-24T12:25:12.020Z,103382.59
2019-02-24T12:27:40.538Z,103383.48
2019-02-24T12:30:11.448Z,103379.46
2019-02-24T12:32:40.018Z,103372.73
2019-02-24T12:35:08.752Z,103370.95
2019-02-24T12:37:37.238Z,103372.74
2019-02-24T12:40:10.465Z,103371.39
2019-02-24T12:42:38.947Z,103367.81
2019-02-24T12:45:09.646Z,103368.70
2019-02-24T12:47:38.129Z,103365.14
2019-02-24T12:50:09.642Z,103366.48
2019-02-24T12:52:38.151Z,103359.32
2019-02-24T12:55:07.952Z,103357.53
2019-02-24T12:57:36.455Z,103359.33
2019-02-24T13:00:09.601Z,103354.41
2019-02-24T13:02:38.099Z,103354.85
2019-02-24T13:05:07.413Z,103348.59
2019-02-24T13:07:35.924Z,103357.99
2019-02-24T13:10:06.990Z,103346.80
2019-02-24T13:12:35.481Z,103349.51
2019-02-24T13:15:05.748Z,103345.47
2019-02-24T13:17:34.240Z,103347.70
2019-02-24T13:20:02.706Z,103333.85
2019-02-24T13:22:31.204Z,103331.61
2019-02-24T13:24:59.668Z,103324.89
2019-02-24T13:27:28.127Z,103323.55
2019-02-24T13:29:56.609Z,103316.39
2019-02-24T13:32:25.097Z,103310.13
2019-02-24T13:34:53.613Z,103318.64
2019-02-24T13:37:22.093Z,103311.92
2019-02-24T13:39:50.580Z,103321.31
2019-02-24T13:42:19.159Z,103320.86
2019-02-24T13:44:47.650Z,103327.13
2019-02-24T13:47:17.774Z,103318.19
2019-02-24T13:49:46.251Z,103313.70
2019-02-24T13:52:14.717Z,103313.72
2019-02-24T13:54:43.250Z,103310.99
2019-02-24T13:57:11.681Z,103308.30
2019-02-24T13:59:40.176Z,103318.57
2019-02-24T14:02:08.665Z,103317.69
2019-02-24T14:04:37.167Z,103318.14
2019-02-24T14:07:05.647Z,103315.45
2019-02-24T14:09:34.145Z,103311.45
2019-02-24T14:12:02.611Z,103308.31
2019-02-24T14:14:31.094Z,103306.05
2019-02-24T14:16:59.549Z,103301.59
2019-02-24T14:19:28.026Z,103308.28
2019-02-24T14:21:56.506Z,103299.80
2019-02-24T14:24:24.987Z,103305.17
2019-02-24T14:26:53.460Z,103305.17
2019-02-24T14:29:21.944Z,103312.33
2019-02-24T14:31:50.411Z,103315.91
2019-02-24T14:34:18.899Z,103315.48
2019-02-24T14:36:47.375Z,103308.33
2019-02-24T14:39:15.864Z,103305.19
2019-02-24T14:41:44.320Z,103308.33
2019-02-24T14:44:13.178Z,103299.37
2019-02-24T14:46:41.685Z,103300.28
2019-02-24T14:49:10.195Z,103296.70
2019-02-24T14:51:38.674Z,103286.84
2019-02-24T14:54:07.131Z,103286.84
2019-02-24T14:56:35.611Z,103286.41
2019-02-24T14:59:05.549Z,103284.18
2019-02-24T15:01:34.256Z,103285.97
2019-02-24T15:04:02.741Z,103279.27
2019-02-24T15:06:31.216Z,103279.73
2019-02-24T15:08:59.683Z,103273.46
2019-02-24T15:11:28.196Z,103278.84
2019-02-24T15:13:56.658Z,103280.61
2019-02-24T15:16:25.149Z,103268.98
2019-02-24T15:18:53.621Z,103261.41
2019-02-24T15:21:22.347Z,103261.40
2019-02-24T15:23:50.804Z,103255.16
2019-02-24T15:26:19.284Z,103252.00
2019-02-24T15:28:47.758Z,103249.33
2019-02-24T15:31:16.250Z,103258.27
2019-02-24T15:33:44.721Z,103258.30
2019-02-24T15:36:13.209Z,103265.44
2019-02-24T15:38:41.675Z,103262.75
2019-02-24T15:41:10.158Z,103267.22
2019-02-24T15:43:38.625Z,103273.93
2019-02-24T15:46:07.195Z,103280.64
2019-02-24T15:48:35.653Z,103278.42
2019-02-24T15:51:04.129Z,103284.65
2019-02-24T15:53:32.606Z,103286.89
2019-02-24T15:56:01.567Z,103292.69
2019-02-24T15:58:30.043Z,103301.63
2019-02-24T16:00:58.537Z,103298.93
2019-02-24T16:03:27.022Z,103287.76
2019-02-24T16:05:55.509Z,103293.55
2019-02-24T16:08:23.975Z,103289.97
2019-02-24T16:10:52.452Z,103295.32
2019-02-24T16:13:20.923Z,103295.77
2019-02-24T16:15:49.420Z,103292.63
2019-02-24T16:18:17.883Z,103297.98
2019-02-24T16:20:46.429Z,103302.00
2019-02-24T16:23:14.864Z,103302.42
2019-02-24T16:25:43.350Z,103307.31
2019-02-24T16:28:11.881Z,103312.66
2019-02-24T16:30:40.377Z,103309.05
2019-02-24T16:33:10.819Z,103314.42
2019-02-24T16:35:39.050Z,103314.83
2019-02-24T16:38:07.528Z,103310.34
2019-02-24T16:40:36.013Z,103311.22
2019-02-24T16:43:04.723Z,103299.62
2019-02-24T16:45:33.213Z,103293.80
2019-02-24T16:48:01.678Z,103300.02
2019-02-24T16:50:30.175Z,103296.88
2019-02-24T16:52:58.644Z,103290.61
2019-02-24T16:55:27.185Z,103285.23
2019-02-24T16:57:55.668Z,103280.75
2019-02-24T17:00:25.684Z,103281.63
2019-02-24T17:02:54.157Z,103275.78
2019-02-24T17:05:22.634Z,103273.97
2019-02-24T17:07:52.534Z,103282.42
2019-02-24T17:10:22.463Z,103277.50
2019-02-24T17:12:50.986Z,103279.23
2019-02-24T17:15:19.570Z,103275.22
2019-02-24T17:17:48.022Z,103277.42
2019-02-24T17:20:24.898Z,103276.48
2019-02-24T17:22:53.389Z,103280.02
2019-02-24T17:25:21.869Z,103285.33
2019-02-24T17:27:50.425Z,103279.52
2019-02-24T17:30:18.889Z,103280.82
2019-02-24T17:32:47.404Z,103279.01
2019-02-24T17:35:15.956Z,103272.26
2019-02-24T17:37:44.430Z,103279.80
2019-02-24T17:40:15.295Z,103275.76
2019-02-24T17:42:43.784Z,103274.39
2019-02-24T17:45:13.601Z,103287.69
2019-02-24T17:47:42.148Z,103288.98
2019-02-24T17:50:18.538Z,103292.03
2019-02-24T17:52:47.043Z,103294.22
2019-02-24T17:55:16.844Z,103311.55
2019-02-24T17:57:45.521Z,103315.95
2019-02-24T18:00:21.377Z,103319.03
2019-02-24T18:02:49.869Z,103325.22
2019-02-24T18:05:18.334Z,103317.57
2019-02-24T18:07:46.831Z,103322.02
2019-02-24T18:10:15.297Z,103319.74
2019-02-24T18:12:43.857Z,103322.38
2019-02-24T18:15:13.138Z,103316.98
2019-02-24T18:17:41.638Z,103319.17
2019-02-24T18:20:12.555Z,103319.56
2019-02-24T18:22:41.056Z,103319.97
2019-02-24T18:25:12.324Z,103313.23
2019-02-24T18:27:40.989Z,103311.86
2019-02-24T18:30:18.307Z,103300.73
2019-02-24T18:32:46.807Z,103310.02
2019-02-24T18:35:15.267Z,103305.03
2019-02-24T18:37:43.767Z,103309.88
2019-02-24T18:40:13.984Z,103299.59
2019-02-24T18:42:42.473Z,103297.36
2019-02-24T18:45:12.587Z,103299.48
2019-02-24T18:47:41.062Z,103293.66
2019-02-24T18:50:14.949Z,103294.98
2019-02-24T18:52:43.503Z,103280.25
2019-02-24T18:55:12.849Z,103297.48
2019-02-24T18:57:41.381Z,103300.11
2019-02-24T19:00:20.525Z,103303.22
2019-02-24T19:02:49.061Z,103305.83
2019-02-24T19:05:17.629Z,103305.33
2019-02-24T19:07:46.162Z,103304.44
2019-02-24T19:10:17.171Z,103295.05
2019-02-24T19:12:45.639Z,103293.64
2019-02-24T19:15:19.033Z,103297.64
2019-02-24T19:17:47.516Z,103294.02
2019-02-24T19:20:20.194Z,103293.97
2019-02-24T19:22:48.671Z,103296.58
2019-02-24T19:25:17.534Z,103298.29
2019-02-24T19:27:45.999Z,103299.58
2019-02-24T19:30:16.320Z,103296.45
2019-02-24T19:32:44.928Z,103293.22
2019-02-24T19:35:15.087Z,103290.98
2019-02-24T19:37:43.846Z,103283.83
2019-02-24T19:40:17.386Z,103276.71
2019-02-24T19:42:46.025Z,103276.20
2019-02-24T19:45:16.663Z,103275.77
2019-02-24T19:47:45.140Z,103269.54
2019-02-24T19:50:15.881Z,103283.25
2019-02-24T19:52:44.501Z,103285.02
2019-02-24T19:55:14.627Z,103281.42
2019-02-24T19:57:43.277Z,103286.25
2019-02-24T20:00:25.031Z,103282.69
2019-02-24T20:02:53.641Z,103284.47
2019-02-24T20:05:22.579Z,103290.66
2019-02-24T20:07:51.117Z,103286.17
2019-02-24T20:10:25.480Z,103287.05
2019-02-24T20:12:53.949Z,103288.32
2019-02-24T20:15:22.447Z,103284.27
2019-02-24T20:17:50.928Z,103287.81
2019-02-24T20:20:19.416Z,103283.28
2019-02-24T20:22:47.977Z,103282.84
2019-02-24T20:25:24.249Z,103290.84
2019-02-24T20:27:52.720Z,103295.68
2019-02-24T20:30:32.671Z,103300.99
2019-02-24T20:33:01.139Z,103306.77
2019-02-24T20:35:29.636Z,103311.63
2019-02-24T20:37:58.125Z,103312.92
2019-02-24T20:40:26.684Z,103317.79
2019-02-24T20:42:55.165Z,103319.48
2019-02-24T20:45:24.808Z,103328.31
2019-02-24T20:47:53.432Z,103332.30
2019-02-24T20:50:24.983Z,103324.60
2019-02-24T20:52:53.469Z,103333.53
2019-02-24T20:55:21.966Z,103327.20
2019-02-24T20:57:51.725Z,103331.19
2019-02-24T21:00:25.666Z,103338.71
2019-02-24T21:02:54.143Z,103343.97
2019-02-24T21:05:22.636Z,103348.75
2019-02-24T21:07:51.182Z,103348.93
2019-02-24T21:10:19.680Z,103352.88
2019-02-24T21:12:48.209Z,103355.63
2019-02-24T21:15:36.041Z,103354.64
2019-02-24T21:18:05.055Z,103355.52
2019-02-24T21:20:34.341Z,103352.25
2019-02-24T21:23:02.766Z,103343.29
2019-02-24T21:25:31.275Z,103342.85
2019-02-24T21:27:59.757Z,103328.91
2019-02-24T21:30:28.263Z,103326.19
2019-02-24T21:32:56.736Z,103327.14
2019-02-24T21:35:25.231Z,103325.20
2019-02-24T21:37:53.708Z,103331.00
2019-02-24T21:40:23.617Z,103338.61
2019-02-24T21:42:52.330Z,103336.73
2019-02-24T21:45:28.289Z,103332.73
2019-02-24T21:47:56.768Z,103333.46
2019-02-24T21:50:25.271Z,103325.77
2019-02-24T21:52:53.742Z,103328.05
2019-02-24T21:55:22.283Z,103321.76
2019-02-24T21:57:50.752Z,103329.13
2019-02-24T22:00:23.713Z,103323.36
2019-02-24T22:02:52.473Z,103327.55
2019-02-24T22:05:20.953Z,103324.05
2019-02-24T22:07:49.444Z,103328.84
2019-02-24T22:10:18.046Z,103324.87
2019-02-24T22:12:46.552Z,103321.22
2019-02-24T22:15:18.101Z,103308.56
2019-02-24T22:17:46.666Z,103310.34
2019-02-24T22:20:15.807Z,103304.09
2019-02-24T22:22:44.910Z,103305.88
2019-02-24T22:25:14.847Z,103309.02
2019-02-24T22:27:43.344Z,103304.09
2019-02-24T22:30:17.731Z,103308.44
2019-02-24T22:32:46.237Z,103315.55
2019-02-24T22:35:14.715Z,103316.52
2019-02-24T22:37:43.249Z,103312.02
2019-02-24T22:40:16.732Z,103310.99
2019-02-24T22:42:46.662Z,103306.50
2019-02-24T22:45:20.186Z,103293.58
2019-02-24T22:47:49.226Z,103304.65
2019-02-24T22:50:18.106Z,103295.27
2019-02-24T22:52:46.943Z,103295.59
2019-02-24T22:55:16.752Z,103291.13
2019-02-24T22:57:45.238Z,103288.06
2019-02-24T23:00:27.177Z,103286.36
2019-02-24T23:02:56.077Z,103287.25
2019-02-24T23:05:24.624Z,103281.42
2019-02-24T23:07:53.116Z,103288.47
2019-02-24T23:10:21.614Z,103290.59
2019-02-24T23:12:50.123Z,103288.75
2019-02-24T23:15:18.609Z,103300.68
2019-02-24T23:17:47.093Z,103302.01
2019-02-24T23:20:15.566Z,103302.73
2019-02-24T23:22:44.051Z,103299.19
2019-02-24T23:25:12.529Z,103295.17
2019-02-24T23:27:41.013Z,103293.44
2019-02-24T23:30:10.517Z,103294.83
2019-02-24T23:32:39.000Z,103294.20
2019-02-24T23:35:07.921Z,103295.27
2019-02-24T23:37:36.405Z,103291.84
2019-02-24T23:40:08.091Z,103301.56
2019-02-24T23:42:36.588Z,103302.95
2019-02-24T23:45:10.620Z,103306.39
2019-02-24T23:47:39.209Z,103296.61
2019-02-24T23:50:09.800Z,103285.11
2019-02-24T23:52:38.350Z,103285.13
2019-02-24T23:55:07.723Z,103289.66
2019-02-24T23:57:36.212Z,103273.70
